sensor_id;sensor_type;location;lat;lon;timestamp;P1;durP1;ratioP1;P2;durP2;ratioP2
38113;SDS011;23926;53.222;6.354;2022-07-09T00:01:09;21.05;;;9.57;;
38113;SDS011;23926;53.222;6.354;2022-07-09T00:03:43;18.98;;;9.85;;
38113;SDS011;23926;53.222;6.354;2022-07-09T00:06:17;18.50;;;8.05;;
38113;SDS011;23926;53.222;6.354;2022-07-09T00:08:44;16.30;;;8.07;;
38113;SDS011;23926;53.222;6.354;2022-07-09T00:11:22;13.52;;;7.75;;
38113;SDS011;23926;53.222;6.354;2022-07-09T00:13:54;20.63;;;10.45;;
38113;SDS011;23926;53.222;6.354;2022-07-09T00:16:24;16.05;;;9.00;;
38113;SDS011;23926;53.222;6.354;2022-07-09T00:18:56;17.50;;;7.80;;
38113;SDS011;23926;53.222;6.354;2022-07-09T00:21:33;14.70;;;8.45;;
38113;SDS011;23926;53.222;6.354;2022-07-09T00:24:05;13.52;;;6.88;;
38113;SDS011;23926;53.222;6.354;2022-07-09T00:26:36;17.60;;;8.73;;
38113;SDS011;23926;53.222;6.354;2022-07-09T00:29:06;18.45;;;8.27;;
38113;SDS011;23926;53.222;6.354;2022-07-09T00:31:34;17.73;;;8.40;;
38113;SDS011;23926;53.222;6.354;2022-07-09T00:34:09;10.98;;;6.80;;
38113;SDS011;23926;53.222;6.354;2022-07-09T00:36:38;20.67;;;9.18;;
38113;SDS011;23926;53.222;6.354;2022-07-09T00:39:09;16.92;;;8.02;;
38113;SDS011;23926;53.222;6.354;2022-07-09T00:41:43;10.02;;;7.05;;
38113;SDS011;23926;53.222;6.354;2022-07-09T00:44:23;16.00;;;7.68;;
38113;SDS011;23926;53.222;6.354;2022-07-09T00:46:57;18.95;;;8.05;;
38113;SDS011;23926;53.222;6.354;2022-07-09T00:49:29;19.05;;;8.88;;
38113;SDS011;23926;53.222;6.354;2022-07-09T00:52:10;20.50;;;8.52;;
38113;SDS011;23926;53.222;6.354;2022-07-09T00:54:41;19.30;;;8.18;;
38113;SDS011;23926;53.222;6.354;2022-07-09T00:57:09;17.98;;;8.48;;
38113;SDS011;23926;53.222;6.354;2022-07-09T00:59:41;25.05;;;9.05;;
38113;SDS011;23926;53.222;6.354;2022-07-09T01:02:21;17.60;;;8.38;;
38113;SDS011;23926;53.222;6.354;2022-07-09T01:04:53;17.60;;;8.02;;
38113;SDS011;23926;53.222;6.354;2022-07-09T01:07:25;13.20;;;7.60;;
38113;SDS011;23926;53.222;6.354;2022-07-09T01:10:00;12.45;;;7.53;;
38113;SDS011;23926;53.222;6.354;2022-07-09T01:12:28;18.90;;;8.10;;
38113;SDS011;23926;53.222;6.354;2022-07-09T01:15:00;17.98;;;8.85;;
38113;SDS011;23926;53.222;6.354;2022-07-09T01:17:36;18.25;;;9.40;;
38113;SDS011;23926;53.222;6.354;2022-07-09T01:20:08;18.65;;;8.77;;
38113;SDS011;23926;53.222;6.354;2022-07-09T01:22:50;18.60;;;8.52;;
38113;SDS011;23926;53.222;6.354;2022-07-09T01:25:24;17.50;;;8.20;;
38113;SDS011;23926;53.222;6.354;2022-07-09T01:28:06;13.57;;;7.80;;
38113;SDS011;23926;53.222;6.354;2022-07-09T01:30:39;21.23;;;8.52;;
38113;SDS011;23926;53.222;6.354;2022-07-09T01:33:09;18.83;;;8.48;;
38113;SDS011;23926;53.222;6.354;2022-07-09T01:35:40;17.73;;;8.30;;
38113;SDS011;23926;53.222;6.354;2022-07-09T01:38:18;18.27;;;8.55;;
38113;SDS011;23926;53.222;6.354;2022-07-09T01:40:58;21.30;;;8.75;;
38113;SDS011;23926;53.222;6.354;2022-07-09T01:43:38;16.92;;;7.85;;
38113;SDS011;23926;53.222;6.354;2022-07-09T01:46:19;16.20;;;8.73;;
38113;SDS011;23926;53.222;6.354;2022-07-09T01:48:49;14.73;;;8.18;;
38113;SDS011;23926;53.222;6.354;2022-07-09T01:51:24;17.73;;;8.00;;
38113;SDS011;23926;53.222;6.354;2022-07-09T01:54:05;17.25;;;7.28;;
38113;SDS011;23926;53.222;6.354;2022-07-09T01:56:38;17.80;;;7.10;;
38113;SDS011;23926;53.222;6.354;2022-07-09T01:59:19;13.60;;;7.20;;
38113;SDS011;23926;53.222;6.354;2022-07-09T02:01:59;18.33;;;8.27;;
38113;SDS011;23926;53.222;6.354;2022-07-09T02:04:37;22.42;;;7.32;;
38113;SDS011;23926;53.222;6.354;2022-07-09T02:07:10;13.65;;;7.72;;
38113;SDS011;23926;53.222;6.354;2022-07-09T02:09:39;14.52;;;7.20;;
38113;SDS011;23926;53.222;6.354;2022-07-09T02:12:12;14.50;;;7.18;;
38113;SDS011;23926;53.222;6.354;2022-07-09T02:14:45;16.55;;;6.93;;
38113;SDS011;23926;53.222;6.354;2022-07-09T02:17:18;12.88;;;6.65;;
38113;SDS011;23926;53.222;6.354;2022-07-09T02:20:06;14.00;;;6.15;;
38113;SDS011;23926;53.222;6.354;2022-07-09T02:22:47;11.77;;;6.25;;
38113;SDS011;23926;53.222;6.354;2022-07-09T02:25:23;16.52;;;6.20;;
38113;SDS011;23926;53.222;6.354;2022-07-09T02:27:53;14.13;;;6.60;;
38113;SDS011;23926;53.222;6.354;2022-07-09T02:30:34;15.25;;;6.20;;
38113;SDS011;23926;53.222;6.354;2022-07-09T02:33:14;12.82;;;5.82;;
38113;SDS011;23926;53.222;6.354;2022-07-09T02:35:55;9.55;;;5.05;;
38113;SDS011;23926;53.222;6.354;2022-07-09T02:38:27;13.88;;;5.30;;
38113;SDS011;23926;53.222;6.354;2022-07-09T02:41:07;11.55;;;5.30;;
38113;SDS011;23926;53.222;6.354;2022-07-09T02:43:38;12.88;;;6.63;;
38113;SDS011;23926;53.222;6.354;2022-07-09T02:46:12;12.68;;;6.05;;
38113;SDS011;23926;53.222;6.354;2022-07-09T02:48:44;11.30;;;5.38;;
38113;SDS011;23926;53.222;6.354;2022-07-09T02:51:18;10.75;;;5.85;;
38113;SDS011;23926;53.222;6.354;2022-07-09T02:53:59;16.05;;;6.43;;
38113;SDS011;23926;53.222;6.354;2022-07-09T02:56:30;14.02;;;6.35;;
38113;SDS011;23926;53.222;6.354;2022-07-09T02:59:01;9.52;;;5.30;;
38113;SDS011;23926;53.222;6.354;2022-07-09T03:01:39;10.77;;;5.28;;
38113;SDS011;23926;53.222;6.354;2022-07-09T03:04:08;12.68;;;6.10;;
38113;SDS011;23926;53.222;6.354;2022-07-09T03:06:42;12.45;;;5.45;;
38113;SDS011;23926;53.222;6.354;2022-07-09T03:09:22;9.82;;;5.57;;
38113;SDS011;23926;53.222;6.354;2022-07-09T03:11:57;14.82;;;6.25;;
38113;SDS011;23926;53.222;6.354;2022-07-09T03:14:28;12.68;;;6.07;;
38113;SDS011;23926;53.222;6.354;2022-07-09T03:17:06;10.45;;;5.43;;
38113;SDS011;23926;53.222;6.354;2022-07-09T03:19:46;14.18;;;6.20;;
38113;SDS011;23926;53.222;6.354;2022-07-09T03:22:27;11.57;;;5.78;;
38113;SDS011;23926;53.222;6.354;2022-07-09T03:25:07;16.20;;;6.25;;
38113;SDS011;23926;53.222;6.354;2022-07-09T03:27:36;11.88;;;6.72;;
38113;SDS011;23926;53.222;6.354;2022-07-09T03:30:09;15.15;;;6.68;;
38113;SDS011;23926;53.222;6.354;2022-07-09T03:32:38;10.68;;;6.15;;
38113;SDS011;23926;53.222;6.354;2022-07-09T03:35:16;13.40;;;5.80;;
38113;SDS011;23926;53.222;6.354;2022-07-09T03:37:49;20.20;;;6.65;;
38113;SDS011;23926;53.222;6.354;2022-07-09T03:40:23;16.33;;;7.22;;
38113;SDS011;23926;53.222;6.354;2022-07-09T03:42:55;18.88;;;7.45;;
38113;SDS011;23926;53.222;6.354;2022-07-09T03:45:26;14.80;;;6.75;;
38113;SDS011;23926;53.222;6.354;2022-07-09T03:47:58;16.35;;;6.95;;
38113;SDS011;23926;53.222;6.354;2022-07-09T03:50:30;15.93;;;6.75;;
38113;SDS011;23926;53.222;6.354;2022-07-09T03:53:04;19.13;;;7.15;;
38113;SDS011;23926;53.222;6.354;2022-07-09T03:55:38;13.27;;;6.68;;
38113;SDS011;23926;53.222;6.354;2022-07-09T03:58:13;13.13;;;7.20;;
38113;SDS011;23926;53.222;6.354;2022-07-09T04:00:43;12.32;;;6.57;;
38113;SDS011;23926;53.222;6.354;2022-07-09T04:03:17;12.25;;;7.13;;
38113;SDS011;23926;53.222;6.354;2022-07-09T04:05:52;11.93;;;6.35;;
38113;SDS011;23926;53.222;6.354;2022-07-09T04:08:26;22.10;;;8.10;;
38113;SDS011;23926;53.222;6.354;2022-07-09T04:11:00;11.65;;;6.53;;
38113;SDS011;23926;53.222;6.354;2022-07-09T04:13:32;12.20;;;6.80;;
38113;SDS011;23926;53.222;6.354;2022-07-09T04:16:03;14.15;;;6.13;;
38113;SDS011;23926;53.222;6.354;2022-07-09T04:18:36;14.27;;;6.47;;
38113;SDS011;23926;53.222;6.354;2022-07-09T04:21:09;12.30;;;5.75;;
38113;SDS011;23926;53.222;6.354;2022-07-09T04:23:40;14.90;;;7.60;;
38113;SDS011;23926;53.222;6.354;2022-07-09T04:26:19;11.45;;;5.80;;
38113;SDS011;23926;53.222;6.354;2022-07-09T04:29:01;14.07;;;6.40;;
38113;SDS011;23926;53.222;6.354;2022-07-09T04:31:35;12.13;;;6.13;;
38113;SDS011;23926;53.222;6.354;2022-07-09T04:34:16;9.52;;;5.93;;
38113;SDS011;23926;53.222;6.354;2022-07-09T04:36:52;11.15;;;5.75;;
38113;SDS011;23926;53.222;6.354;2022-07-09T04:39:29;11.05;;;6.25;;
38113;SDS011;23926;53.222;6.354;2022-07-09T04:42:00;14.32;;;6.85;;
38113;SDS011;23926;53.222;6.354;2022-07-09T04:47:01;16.00;;;6.80;;
38113;SDS011;23926;53.222;6.354;2022-07-09T04:49:39;13.93;;;6.43;;
38113;SDS011;23926;53.222;6.354;2022-07-09T04:52:13;14.55;;;7.18;;
38113;SDS011;23926;53.222;6.354;2022-07-09T04:54:53;12.93;;;6.32;;
38113;SDS011;23926;53.222;6.354;2022-07-09T04:57:27;12.40;;;6.15;;
38113;SDS011;23926;53.222;6.354;2022-07-09T05:00:02;14.48;;;5.93;;
38113;SDS011;23926;53.222;6.354;2022-07-09T05:02:31;12.70;;;6.70;;
38113;SDS011;23926;53.222;6.354;2022-07-09T05:05:08;15.68;;;6.80;;
38113;SDS011;23926;53.222;6.354;2022-07-09T05:07:39;9.25;;;4.95;;
38113;SDS011;23926;53.222;6.354;2022-07-09T05:10:10;15.73;;;5.90;;
38113;SDS011;23926;53.222;6.354;2022-07-09T05:12:56;11.18;;;5.65;;
38113;SDS011;23926;53.222;6.354;2022-07-09T05:15:37;11.23;;;5.60;;
38113;SDS011;23926;53.222;6.354;2022-07-09T05:18:17;13.65;;;5.38;;
38113;SDS011;23926;53.222;6.354;2022-07-09T05:20:55;8.57;;;4.78;;
38113;SDS011;23926;53.222;6.354;2022-07-09T05:23:24;9.68;;;5.25;;
38113;SDS011;23926;53.222;6.354;2022-07-09T05:26:02;11.75;;;5.45;;
38113;SDS011;23926;53.222;6.354;2022-07-09T05:28:33;11.95;;;6.15;;
38113;SDS011;23926;53.222;6.354;2022-07-09T05:31:11;10.80;;;5.25;;
38113;SDS011;23926;53.222;6.354;2022-07-09T05:33:48;10.65;;;4.53;;
38113;SDS011;23926;53.222;6.354;2022-07-09T05:36:17;11.23;;;5.80;;
38113;SDS011;23926;53.222;6.354;2022-07-09T05:38:53;11.18;;;4.90;;
38113;SDS011;23926;53.222;6.354;2022-07-09T05:41:22;13.63;;;5.65;;
38113;SDS011;23926;53.222;6.354;2022-07-09T05:44:03;12.07;;;5.10;;
38113;SDS011;23926;53.222;6.354;2022-07-09T05:46:43;11.43;;;5.32;;
38113;SDS011;23926;53.222;6.354;2022-07-09T05:49:11;11.23;;;4.93;;
38113;SDS011;23926;53.222;6.354;2022-07-09T05:51:46;8.88;;;4.50;;
38113;SDS011;23926;53.222;6.354;2022-07-09T05:54:17;8.63;;;4.75;;
38113;SDS011;23926;53.222;6.354;2022-07-09T05:56:50;11.38;;;4.65;;
38113;SDS011;23926;53.222;6.354;2022-07-09T05:59:24;7.60;;;4.65;;
38113;SDS011;23926;53.222;6.354;2022-07-09T06:02:04;11.73;;;4.45;;
38113;SDS011;23926;53.222;6.354;2022-07-09T06:04:45;8.90;;;4.32;;
38113;SDS011;23926;53.222;6.354;2022-07-09T06:07:19;13.52;;;4.90;;
38113;SDS011;23926;53.222;6.354;2022-07-09T06:10:06;10.40;;;4.45;;
38113;SDS011;23926;53.222;6.354;2022-07-09T06:12:41;7.93;;;4.13;;
38113;SDS011;23926;53.222;6.354;2022-07-09T06:15:12;8.85;;;4.70;;
38113;SDS011;23926;53.222;6.354;2022-07-09T06:17:44;11.90;;;4.40;;
38113;SDS011;23926;53.222;6.354;2022-07-09T06:20:15;8.88;;;4.35;;
38113;SDS011;23926;53.222;6.354;2022-07-09T06:22:47;7.38;;;3.97;;
38113;SDS011;23926;53.222;6.354;2022-07-09T06:25:21;12.18;;;4.32;;
38113;SDS011;23926;53.222;6.354;2022-07-09T06:27:59;8.95;;;3.85;;
38113;SDS011;23926;53.222;6.354;2022-07-09T06:30:29;8.55;;;4.10;;
38113;SDS011;23926;53.222;6.354;2022-07-09T06:32:58;6.72;;;3.30;;
38113;SDS011;23926;53.222;6.354;2022-07-09T06:35:28;11.73;;;4.03;;
38113;SDS011;23926;53.222;6.354;2022-07-09T06:38:00;11.55;;;3.83;;
38113;SDS011;23926;53.222;6.354;2022-07-09T06:40:34;10.52;;;3.70;;
38113;SDS011;23926;53.222;6.354;2022-07-09T06:43:14;10.13;;;3.40;;
38113;SDS011;23926;53.222;6.354;2022-07-09T06:45:48;7.65;;;3.65;;
38113;SDS011;23926;53.222;6.354;2022-07-09T06:48:29;5.03;;;3.00;;
38113;SDS011;23926;53.222;6.354;2022-07-09T06:50:59;8.57;;;3.80;;
38113;SDS011;23926;53.222;6.354;2022-07-09T06:53:40;6.55;;;3.17;;
38113;SDS011;23926;53.222;6.354;2022-07-09T06:56:20;7.55;;;3.75;;
38113;SDS011;23926;53.222;6.354;2022-07-09T06:58:52;10.68;;;3.85;;
38113;SDS011;23926;53.222;6.354;2022-07-09T07:01:26;12.05;;;3.00;;
38113;SDS011;23926;53.222;6.354;2022-07-09T07:04:00;10.18;;;3.03;;
38113;SDS011;23926;53.222;6.354;2022-07-09T07:06:35;6.03;;;2.67;;
38113;SDS011;23926;53.222;6.354;2022-07-09T07:09:13;8.02;;;3.20;;
38113;SDS011;23926;53.222;6.354;2022-07-09T07:11:43;6.30;;;2.80;;
38113;SDS011;23926;53.222;6.354;2022-07-09T07:14:16;12.60;;;3.05;;
38113;SDS011;23926;53.222;6.354;2022-07-09T07:16:46;7.13;;;3.22;;
38113;SDS011;23926;53.222;6.354;2022-07-09T07:19:15;7.35;;;2.85;;
38113;SDS011;23926;53.222;6.354;2022-07-09T07:21:42;5.63;;;2.65;;
38113;SDS011;23926;53.222;6.354;2022-07-09T07:24:07;8.23;;;2.60;;
38113;SDS011;23926;53.222;6.354;2022-07-09T07:26:33;8.70;;;3.15;;
38113;SDS011;23926;53.222;6.354;2022-07-09T07:28:59;7.65;;;2.45;;
38113;SDS011;23926;53.222;6.354;2022-07-09T07:31:25;6.97;;;2.40;;
38113;SDS011;23926;53.222;6.354;2022-07-09T07:33:50;9.30;;;2.58;;
38113;SDS011;23926;53.222;6.354;2022-07-09T07:36:16;8.13;;;2.50;;
38113;SDS011;23926;53.222;6.354;2022-07-09T07:38:42;5.53;;;2.60;;
38113;SDS011;23926;53.222;6.354;2022-07-09T07:41:10;7.85;;;2.55;;
38113;SDS011;23926;53.222;6.354;2022-07-09T07:43:35;9.45;;;2.70;;
38113;SDS011;23926;53.222;6.354;2022-07-09T07:46:00;12.23;;;2.65;;
38113;SDS011;23926;53.222;6.354;2022-07-09T07:48:26;6.80;;;2.90;;
38113;SDS011;23926;53.222;6.354;2022-07-09T07:50:52;11.90;;;2.50;;
38113;SDS011;23926;53.222;6.354;2022-07-09T07:53:18;7.90;;;2.75;;
38113;SDS011;23926;53.222;6.354;2022-07-09T07:55:44;9.15;;;2.78;;
38113;SDS011;23926;53.222;6.354;2022-07-09T07:58:09;9.20;;;2.75;;
38113;SDS011;23926;53.222;6.354;2022-07-09T08:00:34;8.40;;;2.65;;
38113;SDS011;23926;53.222;6.354;2022-07-09T08:03:01;4.88;;;2.55;;
38113;SDS011;23926;53.222;6.354;2022-07-09T08:05:26;8.05;;;2.15;;
38113;SDS011;23926;53.222;6.354;2022-07-09T08:07:52;7.43;;;2.53;;
38113;SDS011;23926;53.222;6.354;2022-07-09T08:10:17;6.32;;;2.78;;
38113;SDS011;23926;53.222;6.354;2022-07-09T08:12:43;8.82;;;2.35;;
38113;SDS011;23926;53.222;6.354;2022-07-09T08:15:08;7.97;;;2.55;;
38113;SDS011;23926;53.222;6.354;2022-07-09T08:17:34;7.63;;;2.38;;
38113;SDS011;23926;53.222;6.354;2022-07-09T08:19:59;9.50;;;3.17;;
38113;SDS011;23926;53.222;6.354;2022-07-09T08:22:24;11.20;;;2.85;;
38113;SDS011;23926;53.222;6.354;2022-07-09T08:24:50;7.15;;;3.10;;
38113;SDS011;23926;53.222;6.354;2022-07-09T08:27:15;9.98;;;2.10;;
38113;SDS011;23926;53.222;6.354;2022-07-09T08:29:40;9.35;;;3.13;;
38113;SDS011;23926;53.222;6.354;2022-07-09T08:32:07;7.85;;;2.80;;
38113;SDS011;23926;53.222;6.354;2022-07-09T08:34:33;9.25;;;2.70;;
38113;SDS011;23926;53.222;6.354;2022-07-09T08:36:58;7.68;;;2.15;;
38113;SDS011;23926;53.222;6.354;2022-07-09T08:39:24;8.50;;;2.50;;
38113;SDS011;23926;53.222;6.354;2022-07-09T08:41:52;8.02;;;2.30;;
38113;SDS011;23926;53.222;6.354;2022-07-09T08:44:18;12.77;;;2.85;;
38113;SDS011;23926;53.222;6.354;2022-07-09T08:46:45;9.18;;;2.97;;
38113;SDS011;23926;53.222;6.354;2022-07-09T08:49:10;8.93;;;2.67;;
38113;SDS011;23926;53.222;6.354;2022-07-09T08:51:36;6.10;;;2.70;;
38113;SDS011;23926;53.222;6.354;2022-07-09T08:54:02;4.00;;;2.13;;
38113;SDS011;23926;53.222;6.354;2022-07-09T08:56:28;4.32;;;1.95;;
38113;SDS011;23926;53.222;6.354;2022-07-09T08:58:53;7.93;;;2.13;;
38113;SDS011;23926;53.222;6.354;2022-07-09T09:01:18;5.05;;;2.00;;
38113;SDS011;23926;53.222;6.354;2022-07-09T09:03:44;4.60;;;2.05;;
38113;SDS011;23926;53.222;6.354;2022-07-09T09:06:11;6.85;;;2.28;;
38113;SDS011;23926;53.222;6.354;2022-07-09T09:08:38;4.60;;;2.20;;
38113;SDS011;23926;53.222;6.354;2022-07-09T09:11:08;10.25;;;2.67;;
38113;SDS011;23926;53.222;6.354;2022-07-09T09:13:45;11.52;;;2.65;;
38113;SDS011;23926;53.222;6.354;2022-07-09T09:16:11;10.02;;;2.47;;
38113;SDS011;23926;53.222;6.354;2022-07-09T09:18:56;8.85;;;2.83;;
38113;SDS011;23926;53.222;6.354;2022-07-09T09:21:22;10.70;;;3.45;;
38113;SDS011;23926;53.222;6.354;2022-07-09T09:23:50;8.15;;;2.60;;
38113;SDS011;23926;53.222;6.354;2022-07-09T09:26:20;10.38;;;3.15;;
38113;SDS011;23926;53.222;6.354;2022-07-09T09:31:24;12.82;;;3.28;;
38113;SDS011;23926;53.222;6.354;2022-07-09T09:33:52;10.38;;;2.63;;
38113;SDS011;23926;53.222;6.354;2022-07-09T09:36:28;5.57;;;2.40;;
38113;SDS011;23926;53.222;6.354;2022-07-09T09:38:54;6.80;;;2.10;;
38113;SDS011;23926;53.222;6.354;2022-07-09T09:41:24;7.20;;;1.95;;
38113;SDS011;23926;53.222;6.354;2022-07-09T09:43:50;4.63;;;1.92;;
38113;SDS011;23926;53.222;6.354;2022-07-09T09:46:19;8.48;;;2.90;;
38113;SDS011;23926;53.222;6.354;2022-07-09T09:48:45;8.45;;;2.92;;
38113;SDS011;23926;53.222;6.354;2022-07-09T09:51:10;9.63;;;2.80;;
38113;SDS011;23926;53.222;6.354;2022-07-09T09:53:40;7.93;;;1.83;;
38113;SDS011;23926;53.222;6.354;2022-07-09T09:56:06;9.18;;;3.15;;
38113;SDS011;23926;53.222;6.354;2022-07-09T09:58:33;5.40;;;2.10;;
38113;SDS011;23926;53.222;6.354;2022-07-09T10:01:00;9.73;;;2.47;;
38113;SDS011;23926;53.222;6.354;2022-07-09T10:03:25;8.50;;;2.80;;
38113;SDS011;23926;53.222;6.354;2022-07-09T10:05:51;6.60;;;2.40;;
38113;SDS011;23926;53.222;6.354;2022-07-09T10:08:16;8.18;;;2.30;;
38113;SDS011;23926;53.222;6.354;2022-07-09T10:10:51;10.13;;;2.50;;
38113;SDS011;23926;53.222;6.354;2022-07-09T10:13:20;9.23;;;2.92;;
38113;SDS011;23926;53.222;6.354;2022-07-09T10:15:48;6.80;;;2.67;;
38113;SDS011;23926;53.222;6.354;2022-07-09T10:18:17;11.02;;;3.25;;
38113;SDS011;23926;53.222;6.354;2022-07-09T10:20:43;6.93;;;2.97;;
38113;SDS011;23926;53.222;6.354;2022-07-09T10:23:09;11.48;;;3.28;;
38113;SDS011;23926;53.222;6.354;2022-07-09T10:25:48;14.18;;;2.70;;
38113;SDS011;23926;53.222;6.354;2022-07-09T10:28:18;12.40;;;3.20;;
38113;SDS011;23926;53.222;6.354;2022-07-09T10:30:45;6.55;;;2.30;;
38113;SDS011;23926;53.222;6.354;2022-07-09T10:33:11;10.60;;;2.70;;
38113;SDS011;23926;53.222;6.354;2022-07-09T10:35:48;9.43;;;2.25;;
38113;SDS011;23926;53.222;6.354;2022-07-09T10:38:18;11.45;;;2.40;;
38113;SDS011;23926;53.222;6.354;2022-07-09T10:40:56;8.38;;;2.00;;
38113;SDS011;23926;53.222;6.354;2022-07-09T10:43:48;8.05;;;2.20;;
38113;SDS011;23926;53.222;6.354;2022-07-09T10:46:14;5.88;;;2.28;;
38113;SDS011;23926;53.222;6.354;2022-07-09T10:48:39;8.75;;;2.03;;
38113;SDS011;23926;53.222;6.354;2022-07-09T10:51:06;18.45;;;2.95;;
38113;SDS011;23926;53.222;6.354;2022-07-09T10:53:31;9.57;;;2.13;;
38113;SDS011;23926;53.222;6.354;2022-07-09T10:55:57;8.25;;;2.55;;
38113;SDS011;23926;53.222;6.354;2022-07-09T10:58:24;6.18;;;2.00;;
38113;SDS011;23926;53.222;6.354;2022-07-09T11:00:54;7.57;;;2.30;;
38113;SDS011;23926;53.222;6.354;2022-07-09T11:03:24;9.15;;;1.83;;
38113;SDS011;23926;53.222;6.354;2022-07-09T11:05:51;5.95;;;1.67;;
38113;SDS011;23926;53.222;6.354;2022-07-09T11:08:16;7.10;;;1.73;;
38113;SDS011;23926;53.222;6.354;2022-07-09T11:10:41;8.85;;;2.47;;
38113;SDS011;23926;53.222;6.354;2022-07-09T11:13:07;7.15;;;2.33;;
38113;SDS011;23926;53.222;6.354;2022-07-09T11:15:34;8.50;;;1.95;;
38113;SDS011;23926;53.222;6.354;2022-07-09T11:20:29;9.57;;;2.05;;
38113;SDS011;23926;53.222;6.354;2022-07-09T11:22:56;6.78;;;1.83;;
38113;SDS011;23926;53.222;6.354;2022-07-09T11:25:31;5.63;;;1.65;;
38113;SDS011;23926;53.222;6.354;2022-07-09T11:27:57;6.75;;;2.05;;
38113;SDS011;23926;53.222;6.354;2022-07-09T11:30:24;5.20;;;1.70;;
38113;SDS011;23926;53.222;6.354;2022-07-09T11:32:51;3.67;;;1.40;;
38113;SDS011;23926;53.222;6.354;2022-07-09T11:37:54;7.68;;;1.85;;
38113;SDS011;23926;53.222;6.354;2022-07-09T11:40:24;5.55;;;1.48;;
38113;SDS011;23926;53.222;6.354;2022-07-09T11:42:50;8.60;;;1.77;;
38113;SDS011;23926;53.222;6.354;2022-07-09T11:45:19;9.48;;;1.98;;
38113;SDS011;23926;53.222;6.354;2022-07-09T11:47:48;4.93;;;1.55;;
38113;SDS011;23926;53.222;6.354;2022-07-09T11:50:15;9.70;;;2.47;;
38113;SDS011;23926;53.222;6.354;2022-07-09T11:52:48;4.60;;;1.60;;
38113;SDS011;23926;53.222;6.354;2022-07-09T11:55:16;7.22;;;1.60;;
38113;SDS011;23926;53.222;6.354;2022-07-09T11:57:53;8.00;;;1.67;;
38113;SDS011;23926;53.222;6.354;2022-07-09T12:00:27;7.13;;;2.22;;
38113;SDS011;23926;53.222;6.354;2022-07-09T12:02:57;3.70;;;1.30;;
38113;SDS011;23926;53.222;6.354;2022-07-09T12:05:34;9.30;;;1.83;;
38113;SDS011;23926;53.222;6.354;2022-07-09T12:08:04;7.00;;;1.73;;
38113;SDS011;23926;53.222;6.354;2022-07-09T12:10:36;5.60;;;1.65;;
38113;SDS011;23926;53.222;6.354;2022-07-09T12:13:03;5.75;;;1.60;;
38113;SDS011;23926;53.222;6.354;2022-07-09T12:15:29;4.47;;;1.50;;
38113;SDS011;23926;53.222;6.354;2022-07-09T12:17:56;5.53;;;1.27;;
38113;SDS011;23926;53.222;6.354;2022-07-09T12:20:25;4.47;;;1.55;;
38113;SDS011;23926;53.222;6.354;2022-07-09T12:22:52;6.57;;;1.70;;
38113;SDS011;23926;53.222;6.354;2022-07-09T12:25:19;4.93;;;1.10;;
38113;SDS011;23926;53.222;6.354;2022-07-09T12:27:45;9.57;;;1.77;;
38113;SDS011;23926;53.222;6.354;2022-07-09T12:30:10;7.05;;;1.48;;
38113;SDS011;23926;53.222;6.354;2022-07-09T12:32:37;5.45;;;1.40;;
38113;SDS011;23926;53.222;6.354;2022-07-09T12:35:03;11.15;;;1.90;;
38113;SDS011;23926;53.222;6.354;2022-07-09T12:37:29;6.88;;;1.38;;
38113;SDS011;23926;53.222;6.354;2022-07-09T12:39:54;5.50;;;1.65;;
38113;SDS011;23926;53.222;6.354;2022-07-09T12:42:20;5.68;;;1.33;;
38113;SDS011;23926;53.222;6.354;2022-07-09T12:44:46;4.65;;;1.30;;
38113;SDS011;23926;53.222;6.354;2022-07-09T12:47:12;3.80;;;1.42;;
38113;SDS011;23926;53.222;6.354;2022-07-09T12:49:38;7.43;;;1.60;;
38113;SDS011;23926;53.222;6.354;2022-07-09T12:52:03;4.35;;;1.08;;
38113;SDS011;23926;53.222;6.354;2022-07-09T12:54:29;6.00;;;1.40;;
38113;SDS011;23926;53.222;6.354;2022-07-09T12:56:54;8.90;;;2.38;;
38113;SDS011;23926;53.222;6.354;2022-07-09T12:59:20;4.78;;;1.80;;
38113;SDS011;23926;53.222;6.354;2022-07-09T13:01:46;3.45;;;1.30;;
38113;SDS011;23926;53.222;6.354;2022-07-09T13:04:11;4.13;;;1.52;;
38113;SDS011;23926;53.222;6.354;2022-07-09T13:06:37;5.05;;;1.60;;
38113;SDS011;23926;53.222;6.354;2022-07-09T13:09:03;4.57;;;1.50;;
38113;SDS011;23926;53.222;6.354;2022-07-09T13:11:30;7.47;;;1.50;;
38113;SDS011;23926;53.222;6.354;2022-07-09T13:13:56;7.05;;;1.50;;
38113;SDS011;23926;53.222;6.354;2022-07-09T13:16:21;2.97;;;1.13;;
38113;SDS011;23926;53.222;6.354;2022-07-09T13:18:48;5.07;;;1.38;;
38113;SDS011;23926;53.222;6.354;2022-07-09T13:21:13;3.03;;;1.10;;
38113;SDS011;23926;53.222;6.354;2022-07-09T13:23:39;6.63;;;1.58;;
38113;SDS011;23926;53.222;6.354;2022-07-09T13:26:04;4.07;;;1.70;;
38113;SDS011;23926;53.222;6.354;2022-07-09T13:28:30;5.28;;;1.60;;
38113;SDS011;23926;53.222;6.354;2022-07-09T13:30:55;4.68;;;1.42;;
38113;SDS011;23926;53.222;6.354;2022-07-09T13:33:21;4.47;;;1.50;;
38113;SDS011;23926;53.222;6.354;2022-07-09T13:35:46;6.82;;;1.73;;
38113;SDS011;23926;53.222;6.354;2022-07-09T13:38:11;3.55;;;1.38;;
38113;SDS011;23926;53.222;6.354;2022-07-09T13:40:38;7.10;;;1.58;;
38113;SDS011;23926;53.222;6.354;2022-07-09T13:43:03;2.55;;;1.45;;
38113;SDS011;23926;53.222;6.354;2022-07-09T13:45:28;8.43;;;1.90;;
38113;SDS011;23926;53.222;6.354;2022-07-09T13:47:54;5.22;;;1.38;;
38113;SDS011;23926;53.222;6.354;2022-07-09T13:50:20;9.15;;;1.75;;
38113;SDS011;23926;53.222;6.354;2022-07-09T13:52:46;6.32;;;1.48;;
38113;SDS011;23926;53.222;6.354;2022-07-09T13:55:12;3.28;;;1.80;;
38113;SDS011;23926;53.222;6.354;2022-07-09T13:57:38;7.97;;;1.70;;
38113;SDS011;23926;53.222;6.354;2022-07-09T14:00:04;6.70;;;1.63;;
38113;SDS011;23926;53.222;6.354;2022-07-09T14:02:31;9.32;;;1.80;;
38113;SDS011;23926;53.222;6.354;2022-07-09T14:04:58;7.07;;;2.13;;
38113;SDS011;23926;53.222;6.354;2022-07-09T14:07:24;5.60;;;2.33;;
38113;SDS011;23926;53.222;6.354;2022-07-09T14:09:49;5.97;;;2.25;;
38113;SDS011;23926;53.222;6.354;2022-07-09T14:12:15;10.50;;;2.45;;
38113;SDS011;23926;53.222;6.354;2022-07-09T14:14:41;6.07;;;1.50;;
38113;SDS011;23926;53.222;6.354;2022-07-09T14:17:07;7.35;;;1.90;;
38113;SDS011;23926;53.222;6.354;2022-07-09T14:19:32;5.47;;;1.77;;
38113;SDS011;23926;53.222;6.354;2022-07-09T14:21:58;6.82;;;2.10;;
38113;SDS011;23926;53.222;6.354;2022-07-09T14:24:23;6.78;;;2.10;;
38113;SDS011;23926;53.222;6.354;2022-07-09T14:26:48;9.60;;;2.00;;
38113;SDS011;23926;53.222;6.354;2022-07-09T14:29:14;8.50;;;1.70;;
38113;SDS011;23926;53.222;6.354;2022-07-09T14:31:39;8.80;;;1.95;;
38113;SDS011;23926;53.222;6.354;2022-07-09T14:34:05;5.90;;;1.77;;
38113;SDS011;23926;53.222;6.354;2022-07-09T14:36:30;6.53;;;1.60;;
38113;SDS011;23926;53.222;6.354;2022-07-09T14:38:56;6.45;;;1.65;;
38113;SDS011;23926;53.222;6.354;2022-07-09T14:41:21;7.30;;;1.90;;
38113;SDS011;23926;53.222;6.354;2022-07-09T14:43:47;7.05;;;1.50;;
38113;SDS011;23926;53.222;6.354;2022-07-09T14:46:12;4.82;;;1.40;;
38113;SDS011;23926;53.222;6.354;2022-07-09T14:48:38;5.68;;;1.48;;
38113;SDS011;23926;53.222;6.354;2022-07-09T14:51:05;4.45;;;1.30;;
38113;SDS011;23926;53.222;6.354;2022-07-09T14:53:31;5.35;;;1.50;;
38113;SDS011;23926;53.222;6.354;2022-07-09T14:55:57;8.60;;;1.73;;
38113;SDS011;23926;53.222;6.354;2022-07-09T14:58:22;3.42;;;1.23;;
38113;SDS011;23926;53.222;6.354;2022-07-09T15:00:47;3.97;;;1.33;;
38113;SDS011;23926;53.222;6.354;2022-07-09T15:03:13;4.65;;;1.27;;
38113;SDS011;23926;53.222;6.354;2022-07-09T15:05:38;6.07;;;1.70;;
38113;SDS011;23926;53.222;6.354;2022-07-09T15:08:04;7.03;;;1.23;;
38113;SDS011;23926;53.222;6.354;2022-07-09T15:10:29;5.47;;;1.60;;